Terminal Aerodrome Forecast
Issued by NWS

Home | Current Version | Previous Version | Text Only | Print | Product List | Glossary On
Versions: 1 2 3 4 5 6 7 8 9 10 11 12 13 14 15 16 17 18 19 20 21 22 23 24 25 26
000
FTUS45 KGJT 220043 AAA
TAFMTJ
TAF AMD
KMTJ 220043Z 2201/2224 29007KT P6SM VCTS BKN110CB
      TEMPO 2202/2204 13011G25KT SCT100 BKN200CB
     FM220500 13009KT P6SM SCT100 BKN200
     FM221700 29004KT P6SM BKN110
     FM222000 26006KT P6SM VCSH BKN080
     FM222200 16008KT P6SM VCTS BKN070CB=

USA.gov is the U.S. government's official web portal to all federal, state and local government web resources and services.